sensor_id;sensor_type;location;lat;lon;timestamp;pressure;altitude;pressure_sealevel;temperature;humidity
8890;BME280;4481;43.406;24.454;2023-04-03T00:00:13;77042.66;;;-144.09;97.71
8890;BME280;4481;43.406;24.454;2023-04-03T00:02:39;77044.75;;;-144.09;97.86
8890;BME280;4481;43.406;24.454;2023-04-03T00:05:07;77065.66;;;-144.09;98.54
8890;BME280;4481;43.406;24.454;2023-04-03T00:07:33;77074.00;;;-144.09;98.88
8890;BME280;4481;43.406;24.454;2023-04-03T00:09:59;77069.81;;;-144.09;98.71
8890;BME280;4481;43.406;24.454;2023-04-03T00:12:26;77076.09;;;-144.09;99.19
8890;BME280;4481;43.406;24.454;2023-04-03T00:14:52;77088.63;;;-144.09;99.55
8890;BME280;4481;43.406;24.454;2023-04-03T00:17:18;77101.19;;;-144.09;100.00
8890;BME280;4481;43.406;24.454;2023-04-03T00:19:44;77103.25;;;-144.09;100.00
8890;BME280;4481;43.406;24.454;2023-04-03T00:22:11;77086.53;;;-144.09;99.69
8890;BME280;4481;43.406;24.454;2023-04-03T00:24:37;77086.53;;;-144.09;99.94
8890;BME280;4481;43.406;24.454;2023-04-03T00:27:03;77090.72;;;-144.09;99.39
8890;BME280;4481;43.406;24.454;2023-04-03T00:29:29;77092.81;;;-144.09;99.72
8890;BME280;4481;43.406;24.454;2023-04-03T00:31:55;77071.91;;;-144.09;98.68
8890;BME280;4481;43.406;24.454;2023-04-03T00:34:22;77084.47;;;-144.09;99.48
8890;BME280;4481;43.406;24.454;2023-04-03T00:36:48;77088.63;;;-144.09;99.61
8890;BME280;4481;43.406;24.454;2023-04-03T00:39:14;77088.63;;;-144.09;99.27
8890;BME280;4481;43.406;24.454;2023-04-03T00:41:41;77086.53;;;-144.09;99.70
8890;BME280;4481;43.406;24.454;2023-04-03T00:47:27;77103.25;;;-144.09;100.00
8890;BME280;4481;43.406;24.454;2023-04-03T00:49:54;77092.81;;;-144.09;99.98
8890;BME280;4481;43.406;24.454;2023-04-03T00:52:23;77084.47;;;-144.09;99.45
8890;BME280;4481;43.406;24.454;2023-04-03T00:54:54;77080.28;;;-144.09;99.00
8890;BME280;4481;43.406;24.454;2023-04-03T00:57:22;77094.91;;;-144.09;99.78
8890;BME280;4481;43.406;24.454;2023-04-03T00:59:54;77084.47;;;-144.09;99.96
8890;BME280;4481;43.406;24.454;2023-04-03T01:02:21;77094.91;;;-144.09;100.00
8890;BME280;4481;43.406;24.454;2023-04-03T01:04:48;77090.72;;;-144.09;100.00
8890;BME280;4481;43.406;24.454;2023-04-03T01:07:16;77097.00;;;-144.09;99.91
8890;BME280;4481;43.406;24.454;2023-04-03T01:09:45;77097.00;;;-144.09;99.88
8890;BME280;4481;43.406;24.454;2023-04-03T01:12:14;77090.72;;;-144.09;99.36
8890;BME280;4481;43.406;24.454;2023-04-03T01:14:41;77103.25;;;-144.09;100.00
8890;BME280;4481;43.406;24.454;2023-04-03T01:17:26;77099.09;;;-144.09;99.18
8890;BME280;4481;43.406;24.454;2023-04-03T01:20:08;77094.91;;;-144.09;99.06
8890;BME280;4481;43.406;24.454;2023-04-03T01:22:45;77111.63;;;-144.09;100.00
8890;BME280;4481;43.406;24.454;2023-04-03T01:25:15;77107.44;;;-144.09;99.76
8890;BME280;4481;43.406;24.454;2023-04-03T01:27:42;77107.44;;;-144.09;99.78
8890;BME280;4481;43.406;24.454;2023-04-03T01:30:09;77105.34;;;-144.09;99.74
8890;BME280;4481;43.406;24.454;2023-04-03T01:32:36;77101.19;;;-144.09;99.49
8890;BME280;4481;43.406;24.454;2023-04-03T01:35:02;77115.81;;;-144.09;100.00
8890;BME280;4481;43.406;24.454;2023-04-03T01:37:29;77126.25;;;-144.09;100.00
8890;BME280;4481;43.406;24.454;2023-04-03T01:39:55;77128.34;;;-144.09;100.00
8890;BME280;4481;43.406;24.454;2023-04-03T01:42:21;77126.25;;;-144.09;100.00
8890;BME280;4481;43.406;24.454;2023-04-03T01:44:47;77124.16;;;-144.09;100.00
8890;BME280;4481;43.406;24.454;2023-04-03T01:47:13;77130.44;;;-144.09;99.93
8890;BME280;4481;43.406;24.454;2023-04-03T01:49:40;77117.91;;;-144.09;99.63
8890;BME280;4481;43.406;24.454;2023-04-03T01:52:06;77117.91;;;-144.09;99.22
8890;BME280;4481;43.406;24.454;2023-04-03T01:54:32;77119.97;;;-144.09;98.67
8890;BME280;4481;43.406;24.454;2023-04-03T01:56:58;77138.78;;;-144.09;99.48
8890;BME280;4481;43.406;24.454;2023-04-03T01:59:24;77149.25;;;-144.09;99.57
8890;BME280;4481;43.406;24.454;2023-04-03T02:01:51;77165.97;;;-144.09;99.80
8890;BME280;4481;43.406;24.454;2023-04-03T02:04:17;77182.69;;;-144.09;100.00
8890;BME280;4481;43.406;24.454;2023-04-03T02:06:44;77182.69;;;-144.09;100.00
8890;BME280;4481;43.406;24.454;2023-04-03T02:09:10;77191.03;;;-144.09;100.00
8890;BME280;4481;43.406;24.454;2023-04-03T02:11:36;77184.78;;;-144.09;100.00
8890;BME280;4481;43.406;24.454;2023-04-03T02:14:03;77184.78;;;-144.09;100.00
8890;BME280;4481;43.406;24.454;2023-04-03T02:16:29;77195.22;;;-144.09;100.00
8890;BME280;4481;43.406;24.454;2023-04-03T02:18:56;77214.03;;;-144.09;100.00
8890;BME280;4481;43.406;24.454;2023-04-03T02:21:23;77186.84;;;-144.09;100.00
8890;BME280;4481;43.406;24.454;2023-04-03T02:23:49;77201.50;;;-144.09;100.00
8890;BME280;4481;43.406;24.454;2023-04-03T02:26:17;77188.94;;;-144.09;100.00
8890;BME280;4481;43.406;24.454;2023-04-03T02:28:43;77182.69;;;-144.09;100.00
8890;BME280;4481;43.406;24.454;2023-04-03T02:31:09;77186.84;;;-144.09;100.00
8890;BME280;4481;43.406;24.454;2023-04-03T02:33:36;77178.50;;;-144.09;100.00
8890;BME280;4481;43.406;24.454;2023-04-03T02:36:04;77178.50;;;-144.09;100.00
8890;BME280;4481;43.406;24.454;2023-04-03T02:38:31;77184.78;;;-144.09;100.00
8890;BME280;4481;43.406;24.454;2023-04-03T02:41:00;77195.22;;;-144.09;100.00
8890;BME280;4481;43.406;24.454;2023-04-03T02:43:27;77214.03;;;-144.09;100.00
8890;BME280;4481;43.406;24.454;2023-04-03T02:45:53;77209.84;;;-144.09;100.00
8890;BME280;4481;43.406;24.454;2023-04-03T02:48:19;77214.03;;;-144.09;100.00
8890;BME280;4481;43.406;24.454;2023-04-03T02:50:45;77222.38;;;-144.09;100.00
8890;BME280;4481;43.406;24.454;2023-04-03T02:53:11;77220.31;;;-144.09;100.00
8890;BME280;4481;43.406;24.454;2023-04-03T02:55:37;77211.94;;;-144.09;100.00
8890;BME280;4481;43.406;24.454;2023-04-03T02:58:04;77211.94;;;-144.09;100.00
8890;BME280;4481;43.406;24.454;2023-04-03T03:00:30;77220.31;;;-144.09;100.00
8890;BME280;4481;43.406;24.454;2023-04-03T03:02:56;77232.84;;;-144.09;100.00
8890;BME280;4481;43.406;24.454;2023-04-03T03:05:22;77218.22;;;-144.09;100.00
8890;BME280;4481;43.406;24.454;2023-04-03T03:07:48;77230.75;;;-144.09;100.00
8890;BME280;4481;43.406;24.454;2023-04-03T03:10:15;77245.38;;;-144.09;100.00
8890;BME280;4481;43.406;24.454;2023-04-03T03:12:41;77226.56;;;-144.09;100.00
8890;BME280;4481;43.406;24.454;2023-04-03T03:15:08;77237.03;;;-144.09;100.00
8890;BME280;4481;43.406;24.454;2023-04-03T03:17:35;77249.56;;;-144.09;100.00
8890;BME280;4481;43.406;24.454;2023-04-03T03:20:01;77234.94;;;-144.09;100.00
8890;BME280;4481;43.406;24.454;2023-04-03T03:22:28;77239.13;;;-144.09;100.00
8890;BME280;4481;43.406;24.454;2023-04-03T03:24:54;77260.00;;;-144.09;100.00
8890;BME280;4481;43.406;24.454;2023-04-03T03:27:20;77234.94;;;-144.09;100.00
8890;BME280;4481;43.406;24.454;2023-04-03T03:29:47;77234.94;;;-144.09;100.00
8890;BME280;4481;43.406;24.454;2023-04-03T03:32:13;77241.19;;;-144.09;100.00
8890;BME280;4481;43.406;24.454;2023-04-03T03:34:40;77234.94;;;-144.09;100.00
8890;BME280;4481;43.406;24.454;2023-04-03T03:37:06;77255.81;;;-144.09;100.00
8890;BME280;4481;43.406;24.454;2023-04-03T03:39:32;77268.38;;;-144.09;100.00
8890;BME280;4481;43.406;24.454;2023-04-03T03:41:58;77264.19;;;-144.09;100.00
8890;BME280;4481;43.406;24.454;2023-04-03T03:44:24;77274.63;;;-144.09;100.00
8890;BME280;4481;43.406;24.454;2023-04-03T03:46:51;77283.00;;;-144.09;100.00
8890;BME280;4481;43.406;24.454;2023-04-03T03:49:17;77291.34;;;-144.09;100.00
8890;BME280;4481;43.406;24.454;2023-04-03T03:51:43;77291.34;;;-144.09;100.00
8890;BME280;4481;43.406;24.454;2023-04-03T03:54:10;77306.00;;;-144.09;100.00
8890;BME280;4481;43.406;24.454;2023-04-03T03:56:36;77289.28;;;-144.09;100.00
8890;BME280;4481;43.406;24.454;2023-04-03T03:59:02;77289.28;;;-144.09;100.00
8890;BME280;4481;43.406;24.454;2023-04-03T04:01:28;77268.38;;;-144.09;100.00
8890;BME280;4481;43.406;24.454;2023-04-03T04:03:55;77266.28;;;-144.09;100.00
8890;BME280;4481;43.406;24.454;2023-04-03T04:06:22;77270.47;;;-144.09;100.00
8890;BME280;4481;43.406;24.454;2023-04-03T04:08:48;77270.47;;;-144.09;100.00
8890;BME280;4481;43.406;24.454;2023-04-03T04:11:14;77260.00;;;-144.09;100.00
8890;BME280;4481;43.406;24.454;2023-04-03T04:13:40;77260.00;;;-144.09;100.00
8890;BME280;4481;43.406;24.454;2023-04-03T04:16:07;77251.66;;;-144.09;100.00
8890;BME280;4481;43.406;24.454;2023-04-03T04:18:34;77249.56;;;-144.09;100.00
8890;BME280;4481;43.406;24.454;2023-04-03T04:21:00;77264.19;;;-144.09;100.00
8890;BME280;4481;43.406;24.454;2023-04-03T04:23:27;77226.56;;;-144.09;100.00
8890;BME280;4481;43.406;24.454;2023-04-03T04:25:53;77245.38;;;-144.09;100.00
8890;BME280;4481;43.406;24.454;2023-04-03T04:28:19;77249.56;;;-144.09;100.00
8890;BME280;4481;43.406;24.454;2023-04-03T04:30:45;77260.00;;;-144.09;100.00
8890;BME280;4481;43.406;24.454;2023-04-03T04:33:12;77266.28;;;-144.09;100.00
8890;BME280;4481;43.406;24.454;2023-04-03T04:35:40;77262.09;;;-144.09;100.00
8890;BME280;4481;43.406;24.454;2023-04-03T04:38:07;77260.00;;;-144.09;100.00
8890;BME280;4481;43.406;24.454;2023-04-03T04:40:35;77262.09;;;-144.09;100.00
8890;BME280;4481;43.406;24.454;2023-04-03T04:43:01;77255.81;;;-144.09;100.00
8890;BME280;4481;43.406;24.454;2023-04-03T04:45:27;77253.75;;;-144.09;100.00
8890;BME280;4481;43.406;24.454;2023-04-03T04:47:55;77253.75;;;-144.09;100.00
8890;BME280;4481;43.406;24.454;2023-04-03T04:50:21;77245.38;;;-144.09;100.00
8890;BME280;4481;43.406;24.454;2023-04-03T04:52:48;77230.75;;;-144.09;100.00
8890;BME280;4481;43.406;24.454;2023-04-03T04:55:14;77224.47;;;-144.09;100.00
8890;BME280;4481;43.406;24.454;2023-04-03T04:57:41;77203.59;;;-144.09;100.00
8890;BME280;4481;43.406;24.454;2023-04-03T05:00:08;77174.31;;;-144.09;100.00
8890;BME280;4481;43.406;24.454;2023-04-03T05:02:34;77163.88;;;-144.09;100.00
8890;BME280;4481;43.406;24.454;2023-04-03T05:05:01;77161.78;;;-144.09;100.00
8890;BME280;4481;43.406;24.454;2023-04-03T05:07:27;77165.97;;;-144.09;100.00
8890;BME280;4481;43.406;24.454;2023-04-03T05:09:53;77159.69;;;-144.09;100.00
8890;BME280;4481;43.406;24.454;2023-04-03T05:12:19;77153.41;;;-144.09;100.00
8890;BME280;4481;43.406;24.454;2023-04-03T05:14:46;77151.34;;;-144.09;100.00
8890;BME280;4481;43.406;24.454;2023-04-03T05:17:12;77138.78;;;-144.09;100.00
8890;BME280;4481;43.406;24.454;2023-04-03T05:19:39;77115.81;;;-144.09;100.00
8890;BME280;4481;43.406;24.454;2023-04-03T05:22:06;77103.25;;;-144.09;100.00
8890;BME280;4481;43.406;24.454;2023-04-03T05:24:32;77084.47;;;-144.09;100.00
8890;BME280;4481;43.406;24.454;2023-04-03T05:26:58;77097.00;;;-144.09;100.00
8890;BME280;4481;43.406;24.454;2023-04-03T05:29:24;77059.38;;;-144.09;100.00
8890;BME280;4481;43.406;24.454;2023-04-03T05:31:51;77028.03;;;-144.09;99.01
8890;BME280;4481;43.406;24.454;2023-04-03T05:34:17;76990.41;;;-144.09;98.16
8890;BME280;4481;43.406;24.454;2023-04-03T05:36:44;76973.69;;;-144.09;97.78
8890;BME280;4481;43.406;24.454;2023-04-03T05:39:10;76946.53;;;-144.09;97.52
8890;BME280;4481;43.406;24.454;2023-04-03T05:41:36;76902.63;;;-144.09;96.27
8890;BME280;4481;43.406;24.454;2023-04-03T05:44:02;76862.94;;;-144.09;95.34
8890;BME280;4481;43.406;24.454;2023-04-03T05:46:28;76833.69;;;-144.09;94.51
8890;BME280;4481;43.406;24.454;2023-04-03T05:48:56;76789.78;;;-144.09;94.35
8890;BME280;4481;43.406;24.454;2023-04-03T05:51:24;76762.63;;;-144.09;93.09
8890;BME280;4481;43.406;24.454;2023-04-03T05:53:55;76783.53;;;-144.09;94.55
8890;BME280;4481;43.406;24.454;2023-04-03T05:56:22;76745.91;;;-144.09;93.22
8890;BME280;4481;43.406;24.454;2023-04-03T05:58:49;76737.56;;;-144.09;92.81
8890;BME280;4481;43.406;24.454;2023-04-03T06:01:15;76731.28;;;-144.09;92.89
8890;BME280;4481;43.406;24.454;2023-04-03T06:03:41;76718.75;;;-144.09;91.86
8890;BME280;4481;43.406;24.454;2023-04-03T06:06:12;76697.84;;;-144.09;91.43
8890;BME280;4481;43.406;24.454;2023-04-03T06:08:39;76695.75;;;-144.09;91.50
8890;BME280;4481;43.406;24.454;2023-04-03T06:11:05;76708.28;;;-144.09;91.99
8890;BME280;4481;43.406;24.454;2023-04-03T06:13:31;76729.19;;;-144.09;92.35
8890;BME280;4481;43.406;24.454;2023-04-03T06:15:58;76722.94;;;-144.09;92.37
8890;BME280;4481;43.406;24.454;2023-04-03T06:18:25;76722.94;;;-144.09;92.48
8890;BME280;4481;43.406;24.454;2023-04-03T06:20:51;76679.03;;;-144.09;91.54
8890;BME280;4481;43.406;24.454;2023-04-03T06:23:17;76660.25;;;-144.09;91.25
8890;BME280;4481;43.406;24.454;2023-04-03T06:25:44;76639.34;;;-144.09;90.78
8890;BME280;4481;43.406;24.454;2023-04-03T06:28:10;76622.63;;;-144.09;90.29
8890;BME280;4481;43.406;24.454;2023-04-03T06:30:36;76576.66;;;-144.09;89.44
8890;BME280;4481;43.406;24.454;2023-04-03T06:33:02;76534.88;;;-144.09;88.38
8890;BME280;4481;43.406;24.454;2023-04-03T06:35:29;76495.16;;;-144.09;87.24
8890;BME280;4481;43.406;24.454;2023-04-03T06:37:56;76457.53;;;-144.09;86.18
8890;BME280;4481;43.406;24.454;2023-04-03T06:40:24;76415.75;;;-144.09;84.68
8890;BME280;4481;43.406;24.454;2023-04-03T06:42:50;76403.22;;;-144.09;83.72
8890;BME280;4481;43.406;24.454;2023-04-03T06:45:17;76373.97;;;-144.09;82.84
8890;BME280;4481;43.406;24.454;2023-04-03T06:47:43;76342.63;;;-144.09;82.33
8890;BME280;4481;43.406;24.454;2023-04-03T06:50:11;76300.84;;;-144.09;80.86
8890;BME280;4481;43.406;24.454;2023-04-03T06:52:39;76336.34;;;-144.09;79.21
8890;BME280;4481;43.406;24.454;2023-04-03T06:55:06;76336.34;;;-144.09;77.24
8890;BME280;4481;43.406;24.454;2023-04-03T06:57:33;76348.91;;;-144.09;77.36
8890;BME280;4481;43.406;24.454;2023-04-03T06:59:59;76371.88;;;-144.09;77.16
8890;BME280;4481;43.406;24.454;2023-04-03T07:02:26;76390.69;;;-144.09;77.70
8890;BME280;4481;43.406;24.454;2023-04-03T07:04:52;76384.41;;;-144.09;77.18
8890;BME280;4481;43.406;24.454;2023-04-03T07:07:18;76367.69;;;-144.09;77.08
8890;BME280;4481;43.406;24.454;2023-04-03T07:09:44;76367.69;;;-144.09;77.41
8890;BME280;4481;43.406;24.454;2023-04-03T07:12:12;76359.34;;;-144.09;76.88
8890;BME280;4481;43.406;24.454;2023-04-03T07:14:39;76365.63;;;-144.09;76.75
8890;BME280;4481;43.406;24.454;2023-04-03T07:17:05;76371.88;;;-144.09;76.66
8890;BME280;4481;43.406;24.454;2023-04-03T07:19:31;76371.88;;;-144.09;76.82
8890;BME280;4481;43.406;24.454;2023-04-03T07:21:57;76355.16;;;-144.09;76.68
8890;BME280;4481;43.406;24.454;2023-04-03T07:24:24;76344.72;;;-144.09;76.76
8890;BME280;4481;43.406;24.454;2023-04-03T07:26:50;76332.19;;;-144.09;75.10
8890;BME280;4481;43.406;24.454;2023-04-03T07:29:17;76296.66;;;-144.09;75.03
8890;BME280;4481;43.406;24.454;2023-04-03T07:31:44;76288.31;;;-144.09;75.18
8890;BME280;4481;43.406;24.454;2023-04-03T07:34:10;76271.59;;;-144.09;74.84
8890;BME280;4481;43.406;24.454;2023-04-03T07:36:37;76240.25;;;-144.09;74.10
8890;BME280;4481;43.406;24.454;2023-04-03T07:39:03;76219.34;;;-144.09;73.54
8890;BME280;4481;43.406;24.454;2023-04-03T07:41:29;76229.81;;;-144.09;73.18
8890;BME280;4481;43.406;24.454;2023-04-03T07:43:55;76236.06;;;-144.09;73.65
8890;BME280;4481;43.406;24.454;2023-04-03T07:46:22;76204.72;;;-144.09;72.43
8890;BME280;4481;43.406;24.454;2023-04-03T07:48:49;76223.53;;;-144.09;73.27
8890;BME280;4481;43.406;24.454;2023-04-03T07:51:16;76215.19;;;-144.09;72.27
8890;BME280;4481;43.406;24.454;2023-04-03T07:53:42;76200.56;;;-144.09;72.46
8890;BME280;4481;43.406;24.454;2023-04-03T07:56:08;76208.91;;;-144.09;72.56
8890;BME280;4481;43.406;24.454;2023-04-03T07:58:35;76236.06;;;-144.09;72.67
8890;BME280;4481;43.406;24.454;2023-04-03T08:01:02;76213.09;;;-144.09;73.65
8890;BME280;4481;43.406;24.454;2023-04-03T08:03:28;76204.72;;;-144.09;73.86
8890;BME280;4481;43.406;24.454;2023-04-03T08:06:02;76213.09;;;-144.09;73.88
8890;BME280;4481;43.406;24.454;2023-04-03T08:08:29;76204.72;;;-144.09;73.66
8890;BME280;4481;43.406;24.454;2023-04-03T08:10:57;76192.19;;;-144.09;72.99
8890;BME280;4481;43.406;24.454;2023-04-03T08:13:24;76156.69;;;-144.09;72.94
8890;BME280;4481;43.406;24.454;2023-04-03T08:15:50;76114.88;;;-144.09;72.21
8890;BME280;4481;43.406;24.454;2023-04-03T08:18:16;76133.69;;;-144.09;72.42
8890;BME280;4481;43.406;24.454;2023-04-03T08:20:44;76135.78;;;-144.09;73.46
8890;BME280;4481;43.406;24.454;2023-04-03T08:23:11;76108.63;;;-144.09;72.29
8890;BME280;4481;43.406;24.454;2023-04-03T08:25:37;76064.75;;;-144.09;72.54
8890;BME280;4481;43.406;24.454;2023-04-03T08:28:04;76043.84;;;-144.09;69.32
8890;BME280;4481;43.406;24.454;2023-04-03T08:30:30;76077.28;;;-144.09;69.67
8890;BME280;4481;43.406;24.454;2023-04-03T08:32:56;76077.28;;;-144.09;69.85
8890;BME280;4481;43.406;24.454;2023-04-03T08:35:22;76062.66;;;-144.09;69.42
8890;BME280;4481;43.406;24.454;2023-04-03T08:37:49;76079.38;;;-144.09;69.67
8890;BME280;4481;43.406;24.454;2023-04-03T08:40:16;76064.75;;;-144.09;69.75
8890;BME280;4481;43.406;24.454;2023-04-03T08:42:53;76018.78;;;-144.09;70.32
8890;BME280;4481;43.406;24.454;2023-04-03T08:45:27;75979.09;;;-144.09;70.05
8890;BME280;4481;43.406;24.454;2023-04-03T08:48:04;76035.50;;;-144.09;68.84
8890;BME280;4481;43.406;24.454;2023-04-03T08:50:37;76014.59;;;-144.09;69.18
8890;BME280;4481;43.406;24.454;2023-04-03T08:53:06;76035.50;;;-144.09;69.54
8890;BME280;4481;43.406;24.454;2023-04-03T08:55:40;76052.22;;;-144.09;70.33
8890;BME280;4481;43.406;24.454;2023-04-03T08:58:12;76022.97;;;-144.09;70.28
8890;BME280;4481;43.406;24.454;2023-04-03T09:00:44;76027.13;;;-144.09;69.24
8890;BME280;4481;43.406;24.454;2023-04-03T09:03:13;76062.66;;;-144.09;69.97
8890;BME280;4481;43.406;24.454;2023-04-03T09:05:43;76037.59;;;-144.09;69.70
8890;BME280;4481;43.406;24.454;2023-04-03T09:08:20;76035.50;;;-144.09;69.79
8890;BME280;4481;43.406;24.454;2023-04-03T09:10:49;76010.44;;;-144.09;69.20
8890;BME280;4481;43.406;24.454;2023-04-03T09:13:24;75991.63;;;-144.09;70.24
8890;BME280;4481;43.406;24.454;2023-04-03T09:15:52;75954.00;;;-144.09;68.89
8890;BME280;4481;43.406;24.454;2023-04-03T09:18:21;75956.09;;;-144.09;69.04
8890;BME280;4481;43.406;24.454;2023-04-03T09:20:55;75931.03;;;-144.09;68.45
8890;BME280;4481;43.406;24.454;2023-04-03T09:23:27;75920.59;;;-144.09;68.01
8890;BME280;4481;43.406;24.454;2023-04-03T09:26:01;75887.16;;;-144.09;67.98
8890;BME280;4481;43.406;24.454;2023-04-03T09:28:32;75849.56;;;-144.09;66.63
8890;BME280;4481;43.406;24.454;2023-04-03T09:31:00;75843.28;;;-144.09;66.15
8890;BME280;4481;43.406;24.454;2023-04-03T09:33:27;75855.81;;;-144.09;66.37
8890;BME280;4481;43.406;24.454;2023-04-03T09:35:54;75872.53;;;-144.09;66.27
8890;BME280;4481;43.406;24.454;2023-04-03T09:38:21;75868.34;;;-144.09;65.39
8890;BME280;4481;43.406;24.454;2023-04-03T09:40:49;75851.66;;;-144.09;65.19
8890;BME280;4481;43.406;24.454;2023-04-03T09:43:23;75847.47;;;-144.09;65.61
8890;BME280;4481;43.406;24.454;2023-04-03T09:45:51;75793.16;;;-144.09;65.33
8890;BME280;4481;43.406;24.454;2023-04-03T09:48:19;75743.00;;;-144.09;64.54
8890;BME280;4481;43.406;24.454;2023-04-03T09:51:00;75697.06;;;-144.09;63.15
8890;BME280;4481;43.406;24.454;2023-04-03T09:53:30;75699.16;;;-144.09;63.17
8890;BME280;4481;43.406;24.454;2023-04-03T09:55:57;75732.56;;;-144.09;63.61
8890;BME280;4481;43.406;24.454;2023-04-03T09:58:26;75703.31;;;-144.09;62.92
8890;BME280;4481;43.406;24.454;2023-04-03T10:00:57;75751.38;;;-144.09;62.49
8890;BME280;4481;43.406;24.454;2023-04-03T10:03:27;75768.09;;;-144.09;61.69
8890;BME280;4481;43.406;24.454;2023-04-03T10:05:54;75778.53;;;-144.09;61.59
8890;BME280;4481;43.406;24.454;2023-04-03T10:08:23;75763.91;;;-144.09;61.79
8890;BME280;4481;43.406;24.454;2023-04-03T10:11:10;75759.72;;;-144.09;60.71
8890;BME280;4481;43.406;24.454;2023-04-03T10:13:49;75759.72;;;-144.09;62.97
8890;BME280;4481;43.406;24.454;2023-04-03T10:16:18;75717.94;;;-144.09;60.93
8890;BME280;4481;43.406;24.454;2023-04-03T10:18:45;75690.78;;;-144.09;59.38
8890;BME280;4481;43.406;24.454;2023-04-03T10:21:29;75732.56;;;-144.09;59.10
8890;BME280;4481;43.406;24.454;2023-04-03T10:24:06;75743.00;;;-144.09;60.79
8890;BME280;4481;43.406;24.454;2023-04-03T10:26:41;75766.00;;;-144.09;59.42
8890;BME280;4481;43.406;24.454;2023-04-03T10:29:20;75761.81;;;-144.09;59.89
8890;BME280;4481;43.406;24.454;2023-04-03T10:31:58;75751.38;;;-144.09;60.65
8890;BME280;4481;43.406;24.454;2023-04-03T10:34:30;75740.94;;;-144.09;60.47
8890;BME280;4481;43.406;24.454;2023-04-03T10:37:04;75751.38;;;-144.09;60.95
8890;BME280;4481;43.406;24.454;2023-04-03T10:39:36;75749.28;;;-144.09;61.11
8890;BME280;4481;43.406;24.454;2023-04-03T10:42:12;75740.94;;;-144.09;60.24
8890;BME280;4481;43.406;24.454;2023-04-03T10:44:52;75738.84;;;-144.09;60.09
8890;BME280;4481;43.406;24.454;2023-04-03T10:47:24;75732.56;;;-144.09;59.59
8890;BME280;4481;43.406;24.454;2023-04-03T10:50:01;75720.03;;;-144.09;60.24
8890;BME280;4481;43.406;24.454;2023-04-03T10:52:39;75740.94;;;-144.09;61.00
8890;BME280;4481;43.406;24.454;2023-04-03T10:55:23;75745.09;;;-144.09;62.31
8890;BME280;4481;43.406;24.454;2023-04-03T10:57:50;75782.72;;;-144.09;63.30
8890;BME280;4481;43.406;24.454;2023-04-03T11:00:21;75749.28;;;-144.09;61.96
8890;BME280;4481;43.406;24.454;2023-04-03T11:02:52;75713.78;;;-144.09;60.50
8890;BME280;4481;43.406;24.454;2023-04-03T11:05:27;75672.00;;;-144.09;60.06
8890;BME280;4481;43.406;24.454;2023-04-03T11:07:57;75694.97;;;-144.09;60.04
8890;BME280;4481;43.406;24.454;2023-04-03T11:10:35;75743.00;;;-144.09;61.66
8890;BME280;4481;43.406;24.454;2023-04-03T11:13:06;75755.53;;;-144.09;61.44
8890;BME280;4481;43.406;24.454;2023-04-03T11:15:35;75745.09;;;-144.09;61.35
8890;BME280;4481;43.406;24.454;2023-04-03T11:18:03;75786.88;;;-144.09;62.98
8890;BME280;4481;43.406;24.454;2023-04-03T11:20:33;75724.22;;;-144.09;61.96
8890;BME280;4481;43.406;24.454;2023-04-03T11:23:05;75720.03;;;-144.09;61.30
8890;BME280;4481;43.406;24.454;2023-04-03T11:25:33;75745.09;;;-144.09;62.97
8890;BME280;4481;43.406;24.454;2023-04-03T11:28:03;75743.00;;;-144.09;63.39
8890;BME280;4481;43.406;24.454;2023-04-03T11:30:32;75707.50;;;-144.09;60.31
8890;BME280;4481;43.406;24.454;2023-04-03T11:33:21;75740.94;;;-144.09;60.71
8890;BME280;4481;43.406;24.454;2023-04-03T11:35:51;75841.19;;;-144.09;63.37
8890;BME280;4481;43.406;24.454;2023-04-03T11:38:24;75839.13;;;-144.09;63.66
8890;BME280;4481;43.406;24.454;2023-04-03T11:40:53;75820.31;;;-144.09;62.75
8890;BME280;4481;43.406;24.454;2023-04-03T11:43:23;75832.84;;;-144.09;63.75
8890;BME280;4481;43.406;24.454;2023-04-03T11:45:54;75763.91;;;-144.09;62.46
8890;BME280;4481;43.406;24.454;2023-04-03T11:48:49;75697.06;;;-144.09;61.33
8890;BME280;4481;43.406;24.454;2023-04-03T11:51:41;75799.41;;;-144.09;62.73
8890;BME280;4481;43.406;24.454;2023-04-03T11:54:43;75770.16;;;-144.09;63.72
8890;BME280;4481;43.406;24.454;2023-04-03T12:03:31;75663.63;;;-144.09;63.17
8890;BME280;4481;43.406;24.454;2023-04-03T12:09:22;75613.50;;;-144.09;59.91
8890;BME280;4481;43.406;24.454;2023-04-03T12:11:49;75582.16;;;-144.09;61.57
8890;BME280;4481;43.406;24.454;2023-04-03T12:14:16;75548.75;;;-144.09;59.01
8890;BME280;4481;43.406;24.454;2023-04-03T12:16:45;75548.75;;;-144.09;58.34
8890;BME280;4481;43.406;24.454;2023-04-03T12:19:32;75561.28;;;-144.09;58.38
8890;BME280;4481;43.406;24.454;2023-04-03T12:22:11;75573.81;;;-144.09;58.52
8890;BME280;4481;43.406;24.454;2023-04-03T12:24:39;75600.97;;;-144.09;58.69
8890;BME280;4481;43.406;24.454;2023-04-03T12:27:17;75694.97;;;-144.09;60.27
8890;BME280;4481;43.406;24.454;2023-04-03T12:29:51;75788.97;;;-144.09;62.33
8890;BME280;4481;43.406;24.454;2023-04-03T12:32:28;75786.88;;;-144.09;62.76
8890;BME280;4481;43.406;24.454;2023-04-03T12:35:09;75872.53;;;-144.09;64.89
8890;BME280;4481;43.406;24.454;2023-04-03T12:37:56;75872.53;;;-144.09;65.59
8890;BME280;4481;43.406;24.454;2023-04-03T12:40:32;75826.56;;;-144.09;65.09
8890;BME280;4481;43.406;24.454;2023-04-03T12:43:28;75809.88;;;-144.09;65.08
8890;BME280;4481;43.406;24.454;2023-04-03T12:46:02;75924.78;;;-144.09;67.19
8890;BME280;4481;43.406;24.454;2023-04-03T12:48:31;75891.34;;;-144.09;66.66
8890;BME280;4481;43.406;24.454;2023-04-03T12:50:59;75889.25;;;-144.09;66.36
8890;BME280;4481;43.406;24.454;2023-04-03T12:53:27;75889.25;;;-144.09;66.74
8890;BME280;4481;43.406;24.454;2023-04-03T12:55:56;75914.31;;;-144.09;67.39
8890;BME280;4481;43.406;24.454;2023-04-03T12:58:23;75920.59;;;-144.09;68.53
8890;BME280;4481;43.406;24.454;2023-04-03T13:01:00;75880.91;;;-144.09;67.43
8890;BME280;4481;43.406;24.454;2023-04-03T13:03:27;75924.78;;;-144.09;68.40
8890;BME280;4481;43.406;24.454;2023-04-03T13:05:57;75887.16;;;-144.09;68.50
8890;BME280;4481;43.406;24.454;2023-04-03T13:08:24;75920.59;;;-144.09;69.32